Virtual Norwegian Aeroclub

Virtual Norwegian Aeroclub! A new look to our va.




 METAR AND TAF INFORMATION
METAR FOR ENTC
ADDS - METARS form results

(1348 UTC 18 November 2019)
Data provider http://aviationweather.gov/metar/data/
 
METAR text: ENTC 181320Z 24008KT 9999 -SHSN FEW022 SCT029 BKN036 00/M03 Q1022 NOSIG RMK WIND 2600FT 19013KT
Conditions at: ENTC (TROMSO/LANGNES , NO) observed 1320 UTC 18 November 2019
Temperature: 0.0°C (32°F)
Dewpoint: -3.0°C (27°F) [RH = 80%]
Pressure (altimeter): 30.18 inches Hg (1022.0 mb)
Winds: from the WSW (240 degrees) at 9 MPH (8 knots; 4.1 m/s)
Visibility: 6 or more miles (10+ km)
Ceiling: 3600 feet AGL
Clouds: few clouds at 2200 feet AGL
scattered clouds at 2900 feet AGL
broken clouds at 3600 feet AGL
Weather: -SHSN  (light snow showers)

METAR text: ENTC 181250Z 24008KT 9999 FEW022 SCT037 BKN049 M00/M04 Q1022 RESHSN NOSIG RMK WIND 2600FT 19008KT
Conditions at: ENTC (TROMSO/LANGNES , NO) observed 1250 UTC 18 November 2019
Temperature: 0.0°C (32°F)
Dewpoint: -4.0°C (25°F) [RH = 74%]
Pressure (altimeter): 30.18 inches Hg (1022.0 mb)
Winds: from the WSW (240 degrees) at 9 MPH (8 knots; 4.1 m/s)
Visibility: 6 or more miles (10+ km)
Ceiling: 4900 feet AGL
Clouds: few clouds at 2200 feet AGL
scattered clouds at 3700 feet AGL
broken clouds at 4900 feet AGL
Weather: no significant weather observed at this time

Forecast for: ENTC (TROMSO/LANGNES , NO)
Text: TAF ENTC 1812/1912 VRB05KT 9999 SCT050
Forecast period: 1200 UTC 18 November 2019 to 1200 UTC 19 November 2019
Forecast type: FROM: standard forecast or significant change
Winds: variable direction winds at 6 MPH (5 knots; 2.6 m/s)
Visibility: 6 or more miles 10+ km)
Ceiling: at least 12,000 feet AGL
Clouds: scattered clouds at 5000 feet AGL
Weather: no significant weather forecast for this period
Text: TEMPO 1812/1912 20010KT
Forecast period: 1200 UTC 18 November 2019 to 1200 UTC 19 November 2019
Forecast type: TEMPORARY: The following changes expected for less than half the time period
Winds: from the SSW (200 degrees) at 12 MPH (10 knots; 5.1 m/s)
Visibility: missing
Ceiling: unknown
Clouds: missing
Weather: no significant weather forecast for this period

 AIRPORT MAP

 RUNWAY INFORMATION
Runway 01 Runway length 7848 ft Runway width 148 ft
Runway elevation 25 ft Runway displaced threshold 0 ft Runway heading 13
Runway 19 Runway length 7848 ft Runway width 148 ft
Runway elevation 13 ft Runway displaced threshold 1286 ft Runway heading 193

 AIRPORT FREQUENCIES
Type APP Name APP Frequency 123.75 MHZ
Type ATIS Name ATIS Frequency 126.125 MHZ
Type TWR Name TWR Frequency 118.3 MHZ

 AIRPORT NEAR NAVIGATION AIDS
Type NDB Name Kobbe Frequency 283 KHZ
Type NDB Name Kvalsund Frequency 362 KHZ
Type NDB Name Lanes Frequency 268 KHZ
Type VOR-DME Name Tromso Frequency 113800 KHZ